Time;durP1;ratioP1;P1;durP2;ratioP2;P2;SDS_P1;SDS_P2;PMS_P1;PMS_P2;Temp;Humidity;BMP_temperature;BMP_pressure;BME280_temperature;BME280_humidity;BME280_pressure;Samples;Min_cycle;Max_cycle;Signal;HPM_P1;HPM_P2
2021/01/13 00:01:42;;;;;;;18.05;11.43;;;;;;;-1.79;76.26;100281.37;1740750;81;21614;-80
2021/01/13 00:04:11;;;;;;;21.45;14.55;;;;;;;-1.81;76.23;100294.23;1720891;82;21054;-79
2021/01/13 00:06:39;;;;;;;22.48;13.25;;;;;;;-1.87;76.50;100296.88;1740684;81;21382;-80
2021/01/13 00:09:07;;;;;;;20.72;14.23;;;;;;;-1.83;76.78;100289.99;1720827;82;21102;-80
2021/01/13 00:11:36;;;;;;;20.12;13.50;;;;;;;-1.80;76.90;100285.67;1740546;81;21532;-82
2021/01/13 00:14:04;;;;;;;21.62;13.75;;;;;;;-1.79;76.73;100262.94;1720762;82;21018;-82
2021/01/13 00:16:33;;;;;;;21.00;11.90;;;;;;;-1.81;76.76;100271.10;1720678;82;21617;-80
2021/01/13 00:19:01;;;;;;;16.07;11.20;;;;;;;-1.82;76.46;100260.84;1765945;81;21033;-82
2021/01/13 00:21:30;;;;;;;16.17;11.68;;;;;;;-1.84;76.60;100239.04;1721031;82;21953;-80
2021/01/13 00:23:58;;;;;;;20.68;11.70;;;;;;;-1.83;76.56;100206.47;1740845;81;20946;-79
2021/01/13 00:26:26;;;;;;;17.57;10.25;;;;;;;-1.86;76.39;100193.23;1721093;82;20963;-79
2021/01/13 00:28:53;;;;;;;13.30;9.60;;;;;;;-1.88;76.39;100174.42;1752245;81;21006;-78
2021/01/13 00:31:23;;;;;;;14.15;10.30;;;;;;;-1.95;76.39;100172.83;1738972;81;21061;-78
2021/01/13 00:33:51;;;;;;;16.15;10.43;;;;;;;-2.00;76.60;100168.18;1738636;81;21006;-79
2021/01/13 00:36:24;;;;;;;12.78;9.43;;;;;;;-2.02;76.57;100159.64;1722872;82;20970;-79
2021/01/13 00:38:52;;;;;;;14.50;9.33;;;;;;;-2.07;76.60;100153.30;1742584;81;21017;-80
2021/01/13 00:41:21;;;;;;;12.55;9.13;;;;;;;-2.06;76.70;100162.72;1721434;82;21243;-79
2021/01/13 00:43:50;;;;;;;16.17;10.45;;;;;;;-2.03;76.59;100166.52;1708922;82;21010;-79
2021/01/13 00:46:19;;;;;;;17.52;10.72;;;;;;;-2.06;76.49;100165.73;1721189;82;21189;-80
2021/01/13 00:48:48;;;;;;;17.42;10.60;;;;;;;-2.10;76.69;100182.90;1742154;81;20974;-79
2021/01/13 00:51:16;;;;;;;14.05;8.60;;;;;;;-2.09;76.62;100170.05;1723763;82;20963;-79
2021/01/13 00:53:45;;;;;;;14.63;10.63;;;;;;;-2.04;76.63;100166.56;1754539;81;20982;-79
2021/01/13 00:56:20;;;;;;;12.78;9.93;;;;;;;-2.01;76.40;100165.22;1737620;81;21006;-79
2021/01/13 00:58:51;;;;;;;15.03;10.05;;;;;;;-2.02;76.40;100158.36;1737612;81;20963;-77
2021/01/13 01:01:20;;;;;;;13.90;8.68;;;;;;;-2.04;76.43;100146.00;1737517;81;21068;-79
2021/01/13 01:03:49;;;;;;;14.18;8.65;;;;;;;-2.07;76.65;100131.47;1721113;82;21066;-79
2021/01/13 01:06:17;;;;;;;15.50;8.10;;;;;;;-2.11;76.72;100113.98;1721119;82;20979;-79
2021/01/13 01:08:46;;;;;;;14.95;8.10;;;;;;;-2.14;77.01;100106.31;1740638;81;20959;-79
2021/01/13 01:11:32;;;;;;;11.18;7.75;;;;;;;-2.14;77.20;100099.05;1720869;82;21068;-80
2021/01/13 01:14:08;;;;;;;14.73;9.55;;;;;;;-2.16;77.13;100092.64;1708432;81;21026;-80
2021/01/13 01:16:38;;;;;;;13.95;7.87;;;;;;;-2.21;77.28;100091.04;1740764;81;20989;-80
2021/01/13 01:19:07;;;;;;;13.85;8.48;;;;;;;-2.24;77.70;100086.80;1715861;83;20986;-81
2021/01/13 01:21:40;;;;;;;10.80;7.20;;;;;;;-2.22;77.62;100072.22;1735682;82;21011;-80
2021/01/13 01:24:09;;;;;;;13.35;8.48;;;;;;;-2.24;77.86;100066.70;1690559;83;22895;-79
2021/01/13 01:26:48;;;;;;;10.40;7.05;;;;;;;-2.24;77.79;100045.72;1738482;82;20979;-80
2021/01/13 01:29:16;;;;;;;9.65;7.42;;;;;;;-2.25;77.87;100039.31;1710952;82;20987;-80
2021/01/13 01:31:50;;;;;;;9.65;7.10;;;;;;;-2.28;77.94;100049.65;1711049;82;20960;-82
2021/01/13 01:34:18;;;;;;;12.05;6.85;;;;;;;-2.34;78.37;100050.58;1711337;81;21098;-81
2021/01/13 01:36:48;;;;;;;11.73;7.12;;;;;;;-2.33;78.50;100033.87;1711200;82;22143;-81
2021/01/13 01:39:16;;;;;;;8.43;6.03;;;;;;;-2.32;78.89;100037.28;1710943;81;20991;-80
2021/01/13 01:41:45;;;;;;;9.35;5.85;;;;;;;-2.29;78.72;100037.22;1711124;82;20991;-80
2021/01/13 01:44:13;;;;;;;10.50;6.50;;;;;;;-2.29;78.74;100032.09;1711025;82;21133;-80
2021/01/13 01:46:41;;;;;;;8.98;5.87;;;;;;;-2.31;78.71;100031.30;1711118;82;21067;-80
2021/01/13 01:49:09;;;;;;;10.90;6.25;;;;;;;-2.35;79.02;100016.36;1687863;82;21583;-83
2021/01/13 01:51:55;;;;;;;9.15;5.95;;;;;;;-2.35;78.96;100003.97;1710986;82;20991;-81
2021/01/13 01:54:24;;;;;;;7.53;5.42;;;;;;;-2.38;79.10;100004.00;1711044;82;20987;-81
2021/01/13 01:56:54;;;;;;;8.38;5.55;;;;;;;-2.41;79.35;99992.52;1721016;82;21050;-80
2021/01/13 01:59:54;;;;;;;7.62;5.62;;;;;;;-2.38;79.62;99981.77;1711154;81;21011;-80
2021/01/13 02:02:22;;;;;;;8.85;6.67;;;;;;;-2.34;79.51;99981.26;1711053;81;21149;-79
2021/01/13 02:04:51;;;;;;;10.70;5.78;;;;;;;-2.36;79.85;99964.58;1710888;81;21011;-81
2021/01/13 02:07:31;;;;;;;6.20;5.37;;;;;;;-2.30;79.78;99959.80;1711115;82;20968;-79
2021/01/13 02:10:01;;;;;;;9.93;4.67;;;;;;;-2.32;79.65;99947.41;1711138;82;21544;-79
2021/01/13 02:12:32;;;;;;;7.28;4.80;;;;;;;-2.30;79.76;99949.52;1711126;82;20996;-79
2021/01/13 02:15:04;;;;;;;8.63;6.40;;;;;;;-2.33;79.50;99955.56;1738495;81;21398;-78
2021/01/13 02:17:37;;;;;;;9.63;6.15;;;;;;;-2.38;79.87;99941.09;1711026;82;20987;-80
2021/01/13 02:20:11;;;;;;;7.70;5.15;;;;;;;-2.36;80.20;99935.05;1716634;82;21491;-80
2021/01/13 02:22:57;;;;;;;10.43;5.53;;;;;;;-2.33;80.05;99933.73;1721446;82;21078;-81
2021/01/13 02:25:51;;;;;;;9.90;5.72;;;;;;;-2.30;79.99;99925.97;1721314;82;20950;-80
2021/01/13 02:28:21;;;;;;;10.40;5.30;;;;;;;-2.28;79.96;99904.13;1719615;82;21380;-80
2021/01/13 02:31:06;;;;;;;8.95;4.78;;;;;;;-2.26;79.89;99893.83;1721229;82;20979;-81
2021/01/13 02:33:56;;;;;;;7.80;4.60;;;;;;;-2.24;80.02;99881.36;1721273;82;20990;-80
2021/01/13 02:36:56;;;;;;;9.50;5.22;;;;;;;-2.22;79.65;99869.75;1721384;82;21065;-81
2021/01/13 02:39:24;;;;;;;8.68;5.85;;;;;;;-2.25;79.81;99894.22;1721364;82;21586;-80
2021/01/13 02:41:52;;;;;;;7.67;5.47;;;;;;;-2.21;79.74;99910.83;1697726;82;22064;-80
2021/01/13 02:44:20;;;;;;;8.45;5.15;;;;;;;-2.20;79.67;99933.08;1696607;83;20954;-80
2021/01/13 02:46:58;;;;;;;9.18;5.75;;;;;;;-2.18;79.72;99936.47;1660692;81;20963;-80
2021/01/13 02:49:31;;;;;;;7.80;4.70;;;;;;;-2.14;79.79;99928.25;1725646;81;21345;-80
2021/01/13 02:52:00;;;;;;;8.13;5.25;;;;;;;-2.13;79.51;99921.80;1725192;81;20975;-81
2021/01/13 02:54:31;;;;;;;9.95;4.97;;;;;;;-2.14;79.75;99922.66;1725767;81;21193;-80
2021/01/13 02:57:19;;;;;;;8.83;5.65;;;;;;;-2.10;79.73;99920.45;1725856;81;20939;-80
2021/01/13 02:59:51;;;;;;;6.75;5.00;;;;;;;-2.10;79.65;99916.59;1725675;81;20954;-80
2021/01/13 03:02:18;;;;;;;8.95;5.30;;;;;;;-2.05;79.65;99900.25;1701984;81;21536;-80
2021/01/13 03:04:47;;;;;;;8.03;4.55;;;;;;;-2.04;79.65;99878.84;1725768;81;21353;-80
2021/01/13 03:07:16;;;;;;;7.55;4.40;;;;;;;-2.02;79.57;99875.36;1725664;81;21199;-81
2021/01/13 03:09:49;;;;;;;7.42;4.58;;;;;;;-2.00;79.48;99862.46;1725665;81;21058;-80
2021/01/13 03:12:27;;;;;;;4.75;3.60;;;;;;;-2.00;79.40;99863.75;1725633;81;21425;-80
2021/01/13 03:14:57;;;;;;;4.97;3.33;;;;;;;-2.00;79.20;99866.31;1753587;81;21042;-79
2021/01/13 03:17:36;;;;;;;10.08;5.50;;;;;;;-2.06;79.01;99865.18;1725809;81;20998;-80
2021/01/13 03:20:40;;;;;;;9.85;5.70;;;;;;;-2.14;79.22;99870.01;1725692;81;21478;-83
2021/01/13 03:23:15;;;;;;;6.90;4.40;;;;;;;-2.12;79.57;99869.98;1753366;81;20979;-83
2021/01/13 03:25:53;;;;;;;7.97;5.45;;;;;;;-2.08;79.24;99866.48;1753440;81;21058;-81
2021/01/13 03:28:24;;;;;;;8.88;4.95;;;;;;;-2.09;79.10;99858.36;1725685;81;21053;-81
2021/01/13 03:30:53;;;;;;;10.50;5.70;;;;;;;-2.10;79.07;99856.68;1725689;81;21030;-82
2021/01/13 03:33:48;;;;;;;8.58;6.05;;;;;;;-2.13;78.99;99849.89;1725793;81;21003;-82
2021/01/13 03:36:23;;;;;;;;;;;;;;;-2.12;79.32;99845.59;1728271;81;20975;-81
2021/01/13 03:39:05;;;;;;;9.20;5.30;;;;;;;-2.06;79.21;99848.48;1750556;81;20177;-83
2021/01/13 03:41:57;;;;;;;9.00;5.60;;;;;;;-2.02;79.14;99855.22;1725191;81;21033;-82
2021/01/13 03:44:28;;;;;;;10.70;6.33;;;;;;;-2.03;78.82;99851.81;1725681;81;21058;-80
2021/01/13 03:47:10;;;;;;;9.95;6.08;;;;;;;-2.11;78.81;99834.45;1725831;81;22006;-82
2021/01/13 03:49:40;;;;;;;10.32;5.12;;;;;;;-2.14;78.93;99828.92;1703106;81;20978;-81
2021/01/13 03:52:08;;;;;;;7.72;5.58;;;;;;;-2.15;78.97;99810.99;1725843;81;21366;-81
2021/01/13 03:54:37;;;;;;;10.45;7.05;;;;;;;-2.16;79.05;99803.70;1725721;81;20967;-79
2021/01/13 03:57:07;;;;;;;11.05;7.22;;;;;;;-2.17;79.30;99790.47;1725724;81;21014;-81
2021/01/13 04:00:03;;;;;;;10.85;6.42;;;;;;;-2.11;79.28;99777.95;1725716;81;22157;-81
2021/01/13 04:03:17;;;;;;;10.72;6.40;;;;;;;-2.07;78.93;99773.13;1724557;81;21134;-83
2021/01/13 04:06:11;;;;;;;11.55;6.40;;;;;;;-2.10;79.07;99762.92;1687888;83;21098;-83
2021/01/13 04:08:43;;;;;;;9.58;6.45;;;;;;;-2.11;79.19;99751.81;1687747;83;20991;-81
2021/01/13 04:11:21;;;;;;;9.63;6.35;;;;;;;-2.05;79.21;99761.09;1852403;77;22992;-78
2021/01/13 04:13:54;;;;;;;11.60;6.95;;;;;;;-2.10;79.19;99757.80;1788482;78;21504;-78
2021/01/13 04:16:26;;;;;;;9.05;6.03;;;;;;;-2.10;79.21;99752.66;1820126;78;21202;-79
2021/01/13 04:18:54;;;;;;;9.85;6.40;;;;;;;-2.08;79.32;99736.77;1784938;78;21009;-80
2021/01/13 04:21:23;;;;;;;13.70;7.12;;;;;;;-2.06;79.32;99722.62;1788253;78;20994;-80
2021/01/13 04:23:58;;;;;;;12.20;7.03;;;;;;;-2.06;79.26;99726.47;1788190;78;20923;-80
2021/01/13 04:26:27;;;;;;;11.55;5.95;;;;;;;-2.03;79.09;99689.98;1721041;82;21478;-79
2021/01/13 04:28:55;;;;;;;10.50;6.50;;;;;;;-2.04;78.88;99681.05;1788257;78;21915;-79
2021/01/13 04:31:25;;;;;;;12.15;7.10;;;;;;;-2.09;78.96;99672.14;1741201;80;21026;-79
2021/01/13 04:33:53;;;;;;;10.05;6.37;;;;;;;-2.12;79.14;99651.67;1728740;81;21030;-80
2021/01/13 04:36:21;;;;;;;13.75;7.67;;;;;;;-2.11;79.23;99640.09;1755630;80;20999;-81
2021/01/13 04:38:50;;;;;;;12.45;5.75;;;;;;;-2.07;79.24;99638.72;1705072;81;21515;-83
2021/01/13 04:41:18;;;;;;;10.48;6.90;;;;;;;-2.05;78.97;99633.95;1755614;80;21527;-81
2021/01/13 04:44:00;;;;;;;10.08;6.85;;;;;;;-2.06;78.65;99659.24;1728718;81;21055;-80
2021/01/13 04:46:35;;;;;;;12.00;6.00;;;;;;;-2.07;78.54;99645.98;1755642;80;20946;-80
2021/01/13 04:49:17;;;;;;;8.43;5.45;;;;;;;-2.05;78.59;99662.20;1728659;81;21082;-80
2021/01/13 04:51:46;;;;;;;9.28;5.95;;;;;;;-2.00;78.28;99673.23;1755570;80;20959;-79
2021/01/13 04:54:16;;;;;;;9.23;5.45;;;;;;;-2.03;78.32;99656.59;1728999;81;22706;-82
2021/01/13 04:57:17;;;;;;;9.50;6.05;;;;;;;-1.99;78.24;99675.35;1755694;80;21619;-80
2021/01/13 05:00:11;;;;;;;9.50;5.75;;;;;;;-1.98;78.22;99675.33;1728885;81;21064;-80
2021/01/13 05:03:03;;;;;;;7.87;5.37;;;;;;;-1.95;78.37;99683.39;1755926;80;20962;-82
2021/01/13 05:05:31;;;;;;;10.82;6.65;;;;;;;-1.89;78.29;99683.22;1728890;81;21066;-82
2021/01/13 05:08:26;;;;;;;9.33;5.70;;;;;;;-1.88;78.27;99669.52;1755667;80;21766;-83
2021/01/13 05:10:59;;;;;;;10.63;6.45;;;;;;;-1.89;78.14;99649.82;1652394;84;21726;-82
2021/01/13 05:13:28;;;;;;;8.83;5.30;;;;;;;-1.94;78.51;99641.39;1693605;83;21241;-84
2021/01/13 05:15:58;;;;;;;10.10;6.37;;;;;;;-1.93;78.54;99636.23;1654901;84;21527;-80
2021/01/13 05:18:53;;;;;;;14.33;7.15;;;;;;;-1.92;78.84;99630.19;1694486;83;20982;-82
2021/01/13 05:21:25;;;;;;;8.08;6.20;;;;;;;-1.85;78.83;99641.16;1677260;84;21499;-83
2021/01/13 05:23:56;;;;;;;8.98;6.37;;;;;;;-1.80;78.86;99638.05;1694115;83;21081;-80
2021/01/13 05:26:28;;;;;;;12.03;6.65;;;;;;;-1.77;79.09;99653.83;1677079;84;21038;-82
2021/01/13 05:29:10;;;;;;;9.38;6.12;;;;;;;-1.74;79.03;99657.59;1695041;83;20946;-80
2021/01/13 05:31:38;;;;;;;8.28;5.50;;;;;;;-1.73;79.04;99669.59;1677260;84;21343;-79
2021/01/13 05:34:07;;;;;;;8.38;5.28;;;;;;;-1.71;79.10;99669.11;1650487;83;20986;-82
2021/01/13 05:36:35;;;;;;;9.88;5.50;;;;;;;-1.70;79.16;99667.77;1680442;82;20994;-80
2021/01/13 05:39:12;;;;;;;6.30;5.10;;;;;;;-1.68;79.26;99657.00;1674628;83;21025;-81
2021/01/13 05:41:40;;;;;;;8.00;4.92;;;;;;;-1.67;79.21;99627.00;1678739;84;21873;-79
2021/01/13 05:44:10;;;;;;;7.60;4.00;;;;;;;-1.67;79.39;99598.72;1698444;81;20986;-78
2021/01/13 05:46:46;;;;;;;8.10;5.37;;;;;;;-1.64;79.56;99612.80;1728241;81;21170;-79
2021/01/13 05:49:15;;;;;;;9.60;5.12;;;;;;;-1.60;79.66;99583.56;1754970;80;20986;-79
2021/01/13 05:51:43;;;;;;;7.10;4.25;;;;;;;-1.56;79.81;99598.45;1728162;81;21010;-80
2021/01/13 05:54:16;;;;;;;5.75;3.70;;;;;;;-1.52;79.67;99589.32;1755020;80;21055;-81
2021/01/13 05:56:45;;;;;;;6.53;4.47;;;;;;;-1.51;79.73;99592.31;1728194;81;21598;-80
2021/01/13 05:59:14;;;;;;;6.53;4.15;;;;;;;-1.49;79.69;99576.82;1755084;80;21037;-80
2021/01/13 06:01:54;;;;;;;5.20;4.22;;;;;;;-1.50;79.78;99591.86;1728166;81;21066;-80
2021/01/13 06:04:23;;;;;;;6.47;4.05;;;;;;;-1.47;79.84;99583.63;1754990;80;21594;-82
2021/01/13 06:07:06;;;;;;;6.90;4.67;;;;;;;-1.47;79.85;99584.92;1728196;81;21085;-80
2021/01/13 06:09:42;;;;;;;5.42;4.08;;;;;;;-1.45;79.95;99572.00;1754115;80;21119;-83
2021/01/13 06:12:18;;;;;;;7.70;4.45;;;;;;;-1.47;79.93;99551.49;1714053;83;21241;-81
2021/01/13 06:14:51;;;;;;;6.95;3.80;;;;;;;-1.48;80.09;99537.39;1737839;82;20948;-81
2021/01/13 06:17:23;;;;;;;6.08;4.15;;;;;;;-1.47;80.24;99542.49;1712637;82;20975;-81
2021/01/13 06:19:54;;;;;;;4.78;2.98;;;;;;;-1.46;79.94;99533.88;1710064;82;21103;-81
2021/01/13 06:22:33;;;;;;;9.35;4.97;;;;;;;-1.46;79.77;99511.19;1731637;82;21039;-83
2021/01/13 06:25:04;;;;;;;4.90;3.72;;;;;;;-1.46;79.94;99513.77;1709273;82;22600;-80
2021/01/13 06:28:05;;;;;;;5.35;4.25;;;;;;;-1.45;79.83;99515.44;1710415;82;21059;-81
2021/01/13 06:30:38;;;;;;;6.87;4.17;;;;;;;-1.43;79.80;99521.83;1718523;82;21058;-83
2021/01/13 06:33:10;;;;;;;;;;;;;;;-1.39;79.91;99501.12;1712964;82;21509;-83
2021/01/13 06:35:46;;;;;;;6.28;3.85;;;;;;;-1.37;79.64;99485.20;1710600;82;20151;-80
2021/01/13 06:38:25;;;;;;;6.65;4.95;;;;;;;-1.40;79.44;99463.45;1730835;82;21070;-80
2021/01/13 06:41:00;;;;;;;5.72;4.37;;;;;;;-1.45;79.35;99484.58;1710071;82;21493;-83
2021/01/13 06:43:31;;;;;;;5.78;4.33;;;;;;;-1.47;79.45;99480.79;1710028;82;20968;-82
2021/01/13 06:45:59;;;;;;;5.10;3.77;;;;;;;-1.46;79.44;99443.06;1710313;82;20971;-83
2021/01/13 06:48:30;;;;;;;5.85;3.75;;;;;;;-1.50;79.15;99435.88;1710239;82;20972;-79
2021/01/13 06:50:59;;;;;;;5.83;4.53;;;;;;;-1.51;79.35;99488.19;1710300;82;21963;-79
2021/01/13 06:53:35;;;;;;;4.65;3.08;;;;;;;-1.47;79.15;99491.08;1711482;82;20976;-81
2021/01/13 06:56:11;;;;;;;5.60;4.67;;;;;;;-1.46;79.08;99501.74;1711083;82;21059;-77
2021/01/13 06:59:02;;;;;;;5.72;4.17;;;;;;;-1.44;79.17;99502.16;1710187;82;20925;-79
2021/01/13 07:01:30;;;;;;;7.17;4.30;;;;;;;-1.45;79.06;99507.72;1691064;82;21126;-78
2021/01/13 07:04:06;;;;;;;6.53;4.37;;;;;;;-1.47;79.09;99500.49;1710024;82;22168;-79
2021/01/13 07:06:35;;;;;;;8.60;4.17;;;;;;;-1.47;78.97;99446.50;1730765;82;21489;-79
2021/01/13 07:09:03;;;;;;;8.23;4.50;;;;;;;-1.52;79.10;99436.36;1737005;82;21533;-78
2021/01/13 07:11:34;;;;;;;5.65;4.22;;;;;;;-1.52;78.99;99426.53;1727089;81;21049;-79
2021/01/13 07:14:03;;;;;;;6.55;4.85;;;;;;;-1.55;79.16;99396.62;1731002;80;21459;-79
2021/01/13 07:16:32;;;;;;;6.62;4.33;;;;;;;-1.56;78.96;99374.80;1728289;81;21646;-81
2021/01/13 07:19:03;;;;;;;4.65;4.05;;;;;;;-1.56;79.13;99377.38;1730408;80;21073;-79
2021/01/13 07:21:40;;;;;;;4.08;3.67;;;;;;;-1.55;79.03;99359.34;1682711;81;21638;-80
2021/01/13 07:24:16;;;;;;;8.63;4.55;;;;;;;-1.51;79.00;99368.65;1755002;80;20963;-79
2021/01/13 07:27:04;;;;;;;6.62;4.35;;;;;;;-1.39;78.91;99384.13;1820243;77;22703;-79
2021/01/13 07:29:39;;;;;;;6.65;5.33;;;;;;;-1.39;78.89;99399.55;1728842;81;20950;-81
2021/01/13 07:32:06;;;;;;;7.05;5.28;;;;;;;-1.35;78.50;99411.89;1737665;81;22435;-79
2021/01/13 07:34:42;;;;;;;11.35;7.00;;;;;;;-1.39;78.47;99383.30;1727903;81;20990;-80
2021/01/13 07:37:24;;;;;;;8.50;4.45;;;;;;;-1.38;78.76;99370.82;1737946;81;21088;-79
2021/01/13 07:40:29;;;;;;;8.30;5.35;;;;;;;-1.36;78.53;99378.05;1728502;81;21032;-83
2021/01/13 07:43:08;;;;;;;7.40;5.05;;;;;;;-1.39;78.51;99394.41;1736045;81;21048;-80
2021/01/13 07:45:44;;;;;;;8.78;5.25;;;;;;;-1.41;78.74;99410.78;1725305;81;22665;-76
2021/01/13 07:48:33;;;;;;;7.87;5.90;;;;;;;-1.37;78.74;99419.64;1755719;81;20974;-79
2021/01/13 07:51:10;;;;;;;9.48;5.92;;;;;;;-1.34;78.79;99423.84;1728861;81;21069;-83
2021/01/13 07:53:51;;;;;;;10.43;6.17;;;;;;;-1.30;78.65;99385.58;1766526;81;20958;-79
2021/01/13 07:56:20;;;;;;;8.43;5.20;;;;;;;-1.29;78.67;99361.52;1728024;81;21128;-79
2021/01/13 07:59:19;;;;;;;8.18;6.45;;;;;;;-1.25;78.63;99349.80;1714315;81;22259;-81
2021/01/13 08:02:18;;;;;;;10.85;5.87;;;;;;;-1.25;78.70;99330.52;1756564;81;21439;-79
2021/01/13 08:05:10;;;;;;;8.98;6.50;;;;;;;-1.26;78.77;99337.02;1763426;81;21057;-80
2021/01/13 08:07:40;;;;;;;8.28;6.47;;;;;;;-1.25;79.08;99336.95;1721905;81;20994;-82
2021/01/13 08:10:13;;;;;;;11.88;6.00;;;;;;;-1.20;78.99;99324.39;1725988;81;21026;-81
2021/01/13 08:13:27;;;;;;;6.50;5.28;;;;;;;-1.18;78.97;99300.75;1737930;81;21267;-81
2021/01/13 08:16:29;;;;;;;9.53;5.95;;;;;;;-1.20;79.06;99325.25;1728623;81;20974;-79
2021/01/13 08:19:40;;;;;;;7.03;5.95;;;;;;;-1.14;79.14;99321.16;1766500;81;21041;-80
2021/01/13 08:22:15;;;;;;;9.25;5.72;;;;;;;-1.07;79.07;99298.65;1729617;81;21113;-86
2021/01/13 08:24:46;;;;;;;10.93;6.28;;;;;;;-1.07;79.10;99284.50;1739937;81;20966;-82
2021/01/13 08:27:22;;;;;;;7.70;4.83;;;;;;;-1.04;79.12;99268.98;1745812;82;21022;-84
2021/01/13 08:29:57;;;;;;;8.35;6.55;;;;;;;-1.02;79.17;99267.20;1703890;78;20991;-86
2021/01/13 08:32:31;;;;;;;10.90;8.00;;;;;;;-0.98;79.14;99268.75;1720148;82;20876;-84
2021/01/13 08:36:53;;;;;;;10.88;7.55;;;;;;;-0.84;79.28;99270.41;1848466;76;21963;-79
2021/01/13 08:39:29;;;;;;;10.18;6.95;;;;;;;-0.84;79.14;99285.02;1823859;77;20943;-80
2021/01/13 08:42:24;;;;;;;10.45;7.33;;;;;;;-0.80;78.94;99273.73;1753252;81;21397;-82
2021/01/13 08:44:56;;;;;;;7.47;6.17;;;;;;;-0.81;79.12;99266.05;1736289;80;21086;-83
2021/01/13 08:47:24;;;;;;;11.88;6.95;;;;;;;-0.77;79.03;99264.59;1750978;81;21021;-81
2021/01/13 08:50:02;;;;;;;12.05;7.40;;;;;;;-0.76;79.01;99273.98;1753909;80;21080;-81
2021/01/13 08:52:34;;;;;;;11.43;6.72;;;;;;;-0.70;79.06;99267.80;1748308;81;20954;-83
2021/01/13 08:55:13;;;;;;;8.60;6.72;;;;;;;-0.65;78.89;99253.02;1759810;79;21220;-82
2021/01/13 08:58:07;;;;;;;11.20;7.22;;;;;;;-0.63;78.78;99229.34;1772724;81;21000;-84
2021/01/13 09:00:37;;;;;;;10.18;6.20;;;;;;;-0.61;78.73;99232.70;1754148;80;21495;-79
2021/01/13 09:03:18;;;;;;;11.78;8.08;;;;;;;-0.60;78.57;99233.11;1772580;79;21021;-79
2021/01/13 09:05:51;;;;;;;10.23;7.12;;;;;;;-0.64;78.73;99225.94;1744887;80;21457;-80
2021/01/13 09:08:32;;;;;;;11.55;7.10;;;;;;;-0.60;78.81;99221.53;1750650;81;22656;-80
2021/01/13 09:11:03;;;;;;;11.33;7.72;;;;;;;-0.60;78.73;99223.23;1754105;80;21058;-80
2021/01/13 09:13:43;;;;;;;13.00;7.50;;;;;;;-0.61;78.87;99215.14;1750540;81;21057;-78
2021/01/13 09:16:29;;;;;;;9.98;7.65;;;;;;;-0.58;78.97;99204.72;1753513;80;20967;-86
2021/01/13 09:19:06;;;;;;;11.63;5.65;;;;;;;-0.52;79.03;99207.06;1750533;81;20965;-80
2021/01/13 09:21:38;;;;;;;10.38;6.37;;;;;;;-0.47;78.64;99196.14;1781560;79;22154;-81
2021/01/13 09:24:09;;;;;;;8.90;6.78;;;;;;;-0.51;78.58;99192.86;1750721;81;21578;-83
2021/01/13 09:26:38;;;;;;;8.38;6.97;;;;;;;-0.50;78.77;99213.83;1754074;80;20963;-82
2021/01/13 09:29:09;;;;;;;9.43;6.70;;;;;;;-0.47;78.92;99215.45;1750584;81;21017;-82
2021/01/13 09:31:39;;;;;;;7.03;6.25;;;;;;;-0.42;78.62;99213.56;1781342;79;21513;-81
2021/01/13 09:34:08;;;;;;;9.08;5.85;;;;;;;-0.46;78.58;99215.40;1781636;79;22144;-77
2021/01/13 09:36:59;;;;;;;8.68;6.95;;;;;;;-0.49;78.68;99219.81;1750786;81;20960;-84
2021/01/13 09:39:39;;;;;;;8.13;5.72;;;;;;;-0.50;78.84;99203.53;1753726;80;20982;-83
2021/01/13 09:42:08;;;;;;;9.90;6.17;;;;;;;-0.47;79.05;99193.56;1747910;81;21641;-84
2021/01/13 09:44:37;;;;;;;9.00;7.10;;;;;;;-0.42;79.26;99185.23;1781644;79;21003;-84
2021/01/13 09:47:26;;;;;;;6.90;5.62;;;;;;;-0.36;79.36;99182.86;1781136;79;21868;-84
2021/01/13 09:49:57;;;;;;;11.10;7.05;;;;;;;-0.27;79.44;99177.34;1749946;81;21648;-85
2021/01/13 09:52:42;;;;;;;6.58;5.35;;;;;;;-0.18;79.19;99173.12;1775637;80;21326;-85
2021/01/13 09:55:15;;;;;;;8.05;6.03;;;;;;;-0.13;79.18;99165.23;1750114;81;20994;-85
2021/01/13 09:57:56;;;;;;;8.60;6.08;;;;;;;-0.11;79.24;99174.58;1781084;79;21014;-84
2021/01/13 10:00:27;;;;;;;7.30;5.55;;;;;;;-0.07;79.31;99181.72;1749217;81;21947;-82
2021/01/13 10:02:58;;;;;;;9.28;6.08;;;;;;;0.05;79.18;99173.97;1775447;80;21023;-81
2021/01/13 10:05:27;;;;;;;11.10;6.12;;;;;;;0.16;78.82;99166.64;1772056;79;21028;-81
2021/01/13 10:07:56;;;;;;;10.30;7.15;;;;;;;0.20;78.72;99167.73;1717133;80;20987;-80
2021/01/13 10:10:25;;;;;;;8.00;6.78;;;;;;;0.31;78.87;99163.43;1750097;81;21562;-82
2021/01/13 10:12:53;;;;;;;8.65;6.45;;;;;;;0.41;78.71;99159.55;1753184;80;21065;-79
2021/01/13 10:15:21;;;;;;;9.88;6.80;;;;;;;0.54;78.57;99162.45;1750056;81;20954;-81
2021/01/13 10:17:52;;;;;;;6.28;5.55;;;;;;;0.67;78.22;99159.33;1718823;80;21518;-81
2021/01/13 10:20:26;;;;;;;11.05;6.83;;;;;;;0.77;78.12;99167.91;1772425;81;21450;-80
2021/01/13 10:22:54;;;;;;;14.23;7.30;;;;;;;0.87;77.89;99147.72;1753837;80;21046;-80
2021/01/13 10:25:33;;;;;;;10.32;7.92;;;;;;;0.99;77.67;99138.59;1751291;81;20997;-81
2021/01/13 10:28:01;;;;;;;7.95;6.47;;;;;;;1.05;77.14;99121.54;1782965;79;20954;-81
2021/01/13 10:30:32;;;;;;;7.22;6.25;;;;;;;1.05;76.62;99130.58;1750070;81;20945;-79
2021/01/13 10:33:01;;;;;;;7.70;5.92;;;;;;;1.06;76.57;99128.37;1775366;80;20963;-81
2021/01/13 10:35:38;;;;;;;8.28;6.42;;;;;;;1.08;76.45;99114.11;1750957;80;20950;-79
2021/01/13 10:38:07;;;;;;;8.00;6.30;;;;;;;1.09;76.51;99115.34;1758632;80;21205;-76
2021/01/13 10:40:39;;;;;;;8.88;6.30;;;;;;;1.12;76.31;99120.81;1752954;81;21001;-79
2021/01/13 10:43:10;;;;;;;5.87;5.15;;;;;;;1.17;76.22;99109.81;1781930;79;20955;-80
2021/01/13 10:45:41;;;;;;;6.42;5.22;;;;;;;1.21;76.11;99103.14;1750049;81;21399;-84
2021/01/13 10:48:12;;;;;;;5.12;4.67;;;;;;;1.29;76.13;99107.11;1752216;80;20940;-81
2021/01/13 10:50:40;;;;;;;6.25;4.60;;;;;;;1.35;76.16;99108.13;1725429;81;21371;-81
2021/01/13 10:53:08;;;;;;;5.05;4.55;;;;;;;1.41;76.04;99105.27;1781082;79;21544;-80
2021/01/13 10:55:36;;;;;;;5.60;4.90;;;;;;;1.45;75.54;99103.75;1780831;79;20979;-81
2021/01/13 10:58:05;;;;;;;5.55;4.85;;;;;;;1.45;75.42;99090.01;1703229;79;21606;-81
2021/01/13 11:00:34;;;;;;;7.97;5.95;;;;;;;1.52;75.57;99084.09;1781483;79;20963;-79
2021/01/13 11:03:02;;;;;;;4.67;4.17;;;;;;;1.58;75.35;99079.47;1749873;81;21179;-82
2021/01/13 11:05:34;;;;;;;5.28;4.60;;;;;;;1.62;75.32;99071.10;1752440;80;21027;-81
2021/01/13 11:08:04;;;;;;;5.08;4.58;;;;;;;1.61;75.38;99075.90;1750292;81;21064;-86
2021/01/13 11:10:32;;;;;;;7.08;6.03;;;;;;;1.61;75.10;99077.20;1753894;80;21066;-86
2021/01/13 11:13:04;;;;;;;6.33;4.95;;;;;;;1.62;75.10;99081.44;1751329;81;21377;-84
2021/01/13 11:15:37;;;;;;;5.62;5.10;;;;;;;1.59;74.64;99081.59;1776097;80;21401;-84
2021/01/13 11:21:12;;;;;;;6.65;5.78;;;;;;;1.45;75.09;99060.30;1853136;76;27010;-85
2021/01/13 11:24:07;;;;;;;6.70;5.67;;;;;;;1.35;75.21;99072.80;1814918;78;21355;-85
2021/01/13 11:26:42;;;;;;;8.83;6.72;;;;;;;1.26;75.50;99056.45;1814571;79;20956;-85
2021/01/13 11:29:10;;;;;;;7.47;6.03;;;;;;;1.24;75.71;99056.55;1791645;79;20940;-86
2021/01/13 11:31:38;;;;;;;12.73;8.30;;;;;;;1.24;75.67;99067.30;1791177;79;21446;-86
2021/01/13 11:34:07;;;;;;;9.63;6.12;;;;;;;1.25;75.71;99078.03;1791402;79;21012;-84
2021/01/13 11:36:37;;;;;;;8.40;5.80;;;;;;;1.21;75.75;99079.91;1791905;79;21047;-85
2021/01/13 11:39:06;;;;;;;7.12;5.55;;;;;;;1.19;75.84;99076.55;1765281;79;21041;-86
2021/01/13 11:42:05;;;;;;;6.05;5.35;;;;;;;1.18;75.83;99052.95;1792182;79;21020;-88
2021/01/13 11:45:24;;;;;;;7.75;4.55;;;;;;;1.18;75.88;99047.78;1827537;77;22705;-81
2021/01/13 11:47:59;;;;;;;6.53;4.47;;;;;;;1.12;75.90;99043.36;1717713;82;21090;-81
2021/01/13 11:50:29;;;;;;;11.93;8.18;;;;;;;1.10;75.85;99045.18;1781723;80;22415;-82
2021/01/13 11:53:05;;;;;;;;;;;;;;;1.05;76.12;99042.81;1723221;81;21037;-80
2021/01/13 11:55:34;;;;;;;22.05;11.10;;;;;;;1.03;76.13;99044.62;1755537;80;20147;-81
2021/01/13 11:58:05;;;;;;;18.82;13.03;;;;;;;0.95;76.10;99040.27;1743212;81;20931;-83
2021/01/13 12:00:39;;;;;;;25.77;14.25;;;;;;;0.85;76.08;99027.42;1731369;81;21484;-84
2021/01/13 12:03:07;;;;;;;16.60;9.93;;;;;;;0.76;76.59;99028.22;1756339;78;21256;-82
2021/01/13 12:05:38;;;;;;;9.75;6.37;;;;;;;0.70;76.57;99036.22;1722821;81;21036;-80
2021/01/13 12:08:08;;;;;;;8.15;4.97;;;;;;;0.66;76.75;99048.04;1743781;80;20979;-80
2021/01/13 12:10:43;;;;;;;19.23;9.35;;;;;;;0.67;76.56;99053.56;1779418;78;21053;-82
2021/01/13 12:13:21;;;;;;;10.53;5.65;;;;;;;0.60;76.32;99061.60;1775171;78;20939;-81